createdAt,value
2019-05-16T00:00:05.726Z,935.6
2019-05-16T00:01:09.324Z,934.5
2019-05-16T00:02:08.307Z,935.7
2019-05-16T00:03:08.153Z,935.6
2019-05-16T00:04:09.537Z,935.6
2019-05-16T00:05:13.541Z,935.7
2019-05-16T00:06:13.912Z,935.6
2019-05-16T00:07:13.565Z,935.6
2019-05-16T00:08:13.715Z,935.6
2019-05-16T00:09:15.103Z,935.5
2019-05-16T00:10:18.516Z,935.7
2019-05-16T00:11:18.043Z,935.5
2019-05-16T00:12:19.480Z,935.5
2019-05-16T00:13:20.269Z,935.5
2019-05-16T00:14:21.388Z,935.5
2019-05-16T00:15:23.670Z,935.5
2019-05-16T00:16:24.367Z,935.6
2019-05-16T00:17:24.481Z,935.5
2019-05-16T00:18:25.638Z,935.5
2019-05-16T00:19:28.741Z,935.5
2019-05-16T00:20:28.623Z,935.5
2019-05-16T00:21:29.003Z,935.5
2019-05-16T00:22:30.135Z,935.4
2019-05-16T00:23:30.910Z,935.3
2019-05-16T00:24:34.453Z,935.4
2019-05-16T00:25:33.568Z,935.3
2019-05-16T00:26:34.686Z,935.3
2019-05-16T00:27:35.813Z,935.3
2019-05-16T00:28:37.963Z,935.2
2019-05-16T00:29:38.431Z,935.3
2019-05-16T00:30:39.825Z,935.3
2019-05-16T00:31:40.952Z,935.3
2019-05-16T00:32:42.078Z,935.2
2019-05-16T00:33:43.432Z,935.3
2019-05-16T00:34:43.557Z,935.2
2019-05-16T00:35:44.679Z,935.3
2019-05-16T00:36:45.810Z,935.2
2019-05-16T00:37:48.312Z,935.2
2019-05-16T00:38:48.450Z,935.1
2019-05-16T00:39:48.883Z,935.2
2019-05-16T00:40:50.289Z,935.2
2019-05-16T00:41:53.243Z,935.2
2019-05-16T00:42:54.663Z,935.2
2019-05-16T00:43:54.050Z,935.1
2019-05-16T00:44:54.169Z,935.2
2019-05-16T00:45:55.302Z,935.1
2019-05-16T00:46:58.043Z,935.1
2019-05-16T00:47:58.442Z,935
2019-05-16T00:48:59.095Z,935.1
2019-05-16T00:50:00.449Z,935.1
2019-05-16T00:51:01.584Z,935
2019-05-16T00:52:02.708Z,935
2019-05-16T00:53:03.836Z,935
2019-05-16T00:54:04.368Z,935.1
2019-05-16T00:55:05.496Z,935
2019-05-16T00:56:07.894Z,935
2019-05-16T00:57:08.572Z,935
2019-05-16T00:58:08.999Z,934.9
2019-05-16T00:59:10.402Z,934.9
2019-05-16T01:00:13.607Z,935
2019-05-16T01:01:14.018Z,935
2019-05-16T01:02:14.142Z,934.9
2019-05-16T01:03:15.274Z,934.9
2019-05-16T01:04:18.205Z,934.9
2019-05-16T01:05:19.898Z,934.9
2019-05-16T01:06:28.677Z,934.8
2019-05-16T01:07:19.006Z,934.9
2019-05-16T01:08:20.128Z,934.9
2019-05-16T01:09:21.280Z,934.8
2019-05-16T01:10:22.408Z,934.8
2019-05-16T01:11:23.532Z,934.8
2019-05-16T01:12:24.660Z,934.8
2019-05-16T01:13:27.721Z,934.8
2019-05-16T01:14:28.227Z,934.8
2019-05-16T01:15:28.777Z,934.8
2019-05-16T01:16:28.170Z,934.7
2019-05-16T01:17:29.300Z,934.7
2019-05-16T01:18:30.427Z,934.8
2019-05-16T01:19:31.582Z,934.7
2019-05-16T01:20:32.712Z,934.7
2019-05-16T01:21:34.236Z,934.8
2019-05-16T01:22:35.373Z,934.8
2019-05-16T01:23:38.643Z,934.8
2019-05-16T01:24:38.552Z,934.7
2019-05-16T01:25:38.830Z,934.7
2019-05-16T01:26:39.262Z,934.7
2019-05-16T01:27:40.674Z,932.8
2019-05-16T01:28:41.803Z,934.7
2019-05-16T01:29:42.950Z,934.6
2019-05-16T01:30:44.349Z,934.7
2019-05-16T01:31:45.746Z,934.7
2019-05-16T01:32:49.129Z,934.5
2019-05-16T01:33:48.622Z,934.7
2019-05-16T01:34:49.153Z,934.7
2019-05-16T01:35:52.916Z,934.6
2019-05-16T01:36:51.017Z,934.6
2019-05-16T01:37:54.242Z,934.5
2019-05-16T01:38:53.616Z,934.6
2019-05-16T01:39:55.075Z,934.5
2019-05-16T01:40:58.256Z,934.6
2019-05-16T01:42:00.106Z,934.5
2019-05-16T01:42:58.470Z,934.4
2019-05-16T01:43:59.874Z,934.4
2019-05-16T01:45:03.022Z,934.4
2019-05-16T01:46:01.119Z,934.5
2019-05-16T01:47:02.258Z,934.5
2019-05-16T01:48:04.112Z,934.4
2019-05-16T01:49:04.491Z,934.5
2019-05-16T01:50:05.653Z,934.4
2019-05-16T01:51:07.730Z,934.5
2019-05-16T01:52:08.570Z,934.5
2019-05-16T01:53:08.830Z,934.5
2019-05-16T01:54:10.197Z,934.5
2019-05-16T01:55:13.816Z,934.3
2019-05-16T01:56:11.948Z,934.4
2019-05-16T01:57:13.560Z,934.3
2019-05-16T01:58:13.952Z,933.2
2019-05-16T01:59:15.344Z,934.3
2019-05-16T02:00:23.126Z,934.3
2019-05-16T02:01:18.933Z,934.4
2019-05-16T02:02:18.420Z,934.4
2019-05-16T02:03:19.589Z,934.4
2019-05-16T02:04:20.704Z,934.3
2019-05-16T02:05:23.942Z,934.1
2019-05-16T02:06:22.040Z,934.3
2019-05-16T02:07:23.176Z,934.3
2019-05-16T02:08:24.305Z,934.3
2019-05-16T02:09:27.895Z,934.3
2019-05-16T02:10:28.313Z,934.3
2019-05-16T02:11:28.483Z,934.3
2019-05-16T02:12:31.190Z,934.2
2019-05-16T02:13:29.507Z,934.3
2019-05-16T02:14:30.907Z,934.3
2019-05-16T02:15:31.432Z,934.2
2019-05-16T02:16:32.552Z,934.3
2019-05-16T02:17:33.691Z,934.2
2019-05-16T02:18:34.812Z,934.2
2019-05-16T02:19:35.942Z,934.2
2019-05-16T02:20:39.184Z,934.2
2019-05-16T02:21:38.967Z,934.2
2019-05-16T02:22:39.385Z,934.2
2019-05-16T02:23:40.474Z,934.2
2019-05-16T02:24:41.608Z,934.2
2019-05-16T02:25:48.642Z,934.1
2019-05-16T02:26:42.865Z,934.2
2019-05-16T02:27:43.998Z,934.2
2019-05-16T02:28:45.134Z,934.1
2019-05-16T02:29:46.261Z,934.1
2019-05-16T02:30:50.935Z,934
2019-05-16T02:31:51.286Z,934.1
2019-05-16T02:32:52.153Z,933.2
2019-05-16T02:33:51.304Z,933.9
2019-05-16T02:34:51.715Z,934
2019-05-16T02:36:01.667Z,934
2019-05-16T02:37:34.187Z,934
2019-05-16T02:38:00.914Z,933.9
2019-05-16T02:39:01.819Z,933.9
2019-05-16T02:40:01.176Z,933.5
2019-05-16T02:41:03.007Z,933.8
2019-05-16T02:41:56.268Z,933.8
2019-05-16T02:43:02.077Z,933.8
2019-05-16T02:44:00.957Z,933.8
2019-05-16T02:45:02.278Z,933.7
2019-05-16T02:46:01.124Z,933.7
2019-05-16T02:47:01.933Z,933.7
2019-05-16T02:48:02.363Z,933.7
2019-05-16T02:49:06.329Z,933.7
2019-05-16T02:50:04.459Z,933.7
2019-05-16T02:51:10.779Z,933.6
2019-05-16T02:52:07.379Z,933.6
2019-05-16T02:53:08.746Z,933.6
2019-05-16T02:54:10.943Z,933.6
2019-05-16T02:55:11.774Z,933.6
2019-05-16T02:56:12.617Z,933.5
2019-05-16T02:57:16.908Z,933.6
2019-05-16T02:58:15.007Z,933.6
2019-05-16T02:59:20.335Z,933.5
2019-05-16T03:00:16.663Z,933.5
2019-05-16T03:01:21.337Z,933.5
2019-05-16T03:02:20.487Z,933.6
2019-05-16T03:03:21.254Z,933.4
2019-05-16T03:04:21.371Z,933.1
2019-05-16T03:05:21.798Z,933.4
2019-05-16T03:06:22.588Z,933.5
2019-05-16T03:07:51.792Z,933.5
2019-05-16T03:08:24.910Z,933.4
2019-05-16T03:09:26.044Z,933.4
2019-05-16T03:10:27.429Z,933.4
2019-05-16T03:11:31.413Z,933.3
2019-05-16T03:12:30.833Z,933.3
2019-05-16T03:13:31.153Z,933.4
2019-05-16T03:14:31.650Z,933.3
2019-05-16T03:15:32.847Z,933.3
2019-05-16T03:16:37.102Z,933.2
2019-05-16T03:17:34.187Z,933.3
2019-05-16T03:18:35.316Z,933.3
2019-05-16T03:19:36.732Z,933.2
2019-05-16T03:20:40.536Z,931.2
2019-05-16T03:21:41.259Z,933.2
2019-05-16T03:22:40.837Z,933.3
2019-05-16T03:23:41.951Z,933.3
2019-05-16T03:24:42.158Z,933.1
2019-05-16T03:25:42.615Z,933.2
2019-05-16T03:26:43.134Z,933.3
2019-05-16T03:27:47.027Z,933.2
2019-05-16T03:28:45.124Z,933.2
2019-05-16T03:29:46.262Z,933.3
2019-05-16T03:30:47.384Z,933.3
2019-05-16T03:31:53.528Z,933.3
2019-05-16T03:32:54.567Z,933.3
2019-05-16T03:33:58.507Z,933.2
2019-05-16T03:34:54.592Z,933.2
2019-05-16T03:36:04.450Z,933.2
2019-05-16T03:38:50.690Z,933.2
2019-05-16T03:39:51.403Z,933.2
2019-05-16T03:40:51.923Z,933.2
2019-05-16T03:41:53.058Z,933.1
2019-05-16T03:42:54.200Z,933.2
2019-05-16T03:43:55.323Z,933.1
2019-05-16T03:44:56.464Z,933.1
2019-05-16T03:45:57.596Z,933.1
2019-05-16T03:47:00.968Z,933.2
2019-05-16T03:48:02.664Z,933.2
2019-05-16T03:49:02.351Z,933.1
2019-05-16T03:50:02.292Z,932.8
2019-05-16T03:51:06.346Z,933.1
2019-05-16T03:52:07.076Z,933.1
2019-05-16T03:53:07.193Z,933.1
2019-05-16T03:54:12.028Z,933
2019-05-16T03:55:10.693Z,933.1
2019-05-16T03:56:11.042Z,933
2019-05-16T03:57:11.507Z,933
2019-05-16T03:58:11.795Z,933
2019-05-16T03:59:12.245Z,933
2019-05-16T04:00:12.752Z,933
2019-05-16T04:01:13.882Z,933.1
2019-05-16T04:02:15.006Z,932.9
2019-05-16T04:03:16.167Z,933
2019-05-16T04:04:20.643Z,933
2019-05-16T04:05:20.952Z,933
2019-05-16T04:06:22.052Z,931.2
2019-05-16T04:07:21.374Z,933
2019-05-16T04:08:31.226Z,933
2019-05-16T04:09:22.319Z,933
2019-05-16T04:10:23.082Z,932.9
2019-05-16T04:11:32.047Z,933
2019-05-16T04:12:26.842Z,933
2019-05-16T04:13:25.981Z,933.1
2019-05-16T04:14:30.680Z,933
2019-05-16T04:15:30.919Z,933.1
2019-05-16T04:16:31.257Z,933.1
2019-05-16T04:17:31.624Z,933.1
2019-05-16T04:18:32.343Z,933
2019-05-16T04:19:33.495Z,933
2019-05-16T04:20:33.979Z,933
2019-05-16T04:21:35.095Z,933.1
2019-05-16T04:22:36.233Z,933.1
2019-05-16T04:23:37.380Z,933
2019-05-16T04:24:41.548Z,933
2019-05-16T04:25:46.399Z,933
2019-05-16T04:26:41.225Z,933
2019-05-16T04:27:41.982Z,933
2019-05-16T04:28:42.399Z,933
2019-05-16T04:29:46.272Z,932.9
2019-05-16T04:30:44.015Z,931.1
2019-05-16T04:31:45.144Z,932.8
2019-05-16T04:32:46.278Z,932.8
2019-05-16T04:33:47.435Z,932.8
2019-05-16T04:34:51.082Z,932.8
2019-05-16T04:35:52.341Z,932.8
2019-05-16T04:36:51.365Z,932.8
2019-05-16T04:37:51.365Z,932.8
2019-05-16T04:38:51.703Z,931.4
2019-05-16T04:39:52.843Z,933.1
2019-05-16T04:40:53.348Z,933
2019-05-16T04:41:54.483Z,933
2019-05-16T04:42:55.605Z,933
2019-05-16T04:44:00.439Z,933
2019-05-16T04:45:00.792Z,933
2019-05-16T04:46:01.258Z,932.8
2019-05-16T04:47:01.343Z,933.1
2019-05-16T04:48:01.012Z,932.9
2019-05-16T04:49:02.438Z,933
2019-05-16T04:50:07.374Z,932.9
2019-05-16T04:51:03.819Z,933
2019-05-16T04:52:04.950Z,933
2019-05-16T04:53:06.082Z,933
2019-05-16T04:54:16.195Z,932.8
2019-05-16T04:55:11.313Z,933
2019-05-16T04:56:10.985Z,933
2019-05-16T04:57:11.798Z,933
2019-05-16T04:58:11.328Z,933
2019-05-16T04:59:16.468Z,933.1
2019-05-16T05:00:13.853Z,933
2019-05-16T05:01:16.800Z,933
2019-05-16T05:02:14.906Z,933
2019-05-16T05:03:16.037Z,933
2019-05-16T05:04:17.196Z,933
2019-05-16T05:05:21.433Z,933
2019-05-16T05:06:20.748Z,933
2019-05-16T05:07:21.280Z,933.1
2019-05-16T05:08:22.807Z,933.1
2019-05-16T05:09:26.397Z,933.1
2019-05-16T05:10:26.211Z,933.1
2019-05-16T05:11:27.106Z,933.1
2019-05-16T05:12:26.476Z,933.1
2019-05-16T05:13:30.481Z,933
2019-05-16T05:14:30.704Z,933
2019-05-16T05:15:30.679Z,933.1
2019-05-16T05:16:30.830Z,933.1
2019-05-16T05:17:32.222Z,932.9
2019-05-16T05:18:35.815Z,933
2019-05-16T05:19:36.088Z,933.1
2019-05-16T05:20:35.812Z,933
2019-05-16T05:21:36.327Z,933
2019-05-16T05:22:39.585Z,933.1
2019-05-16T05:23:40.640Z,933.1
2019-05-16T05:24:40.542Z,933.1
2019-05-16T05:25:40.756Z,933.1
2019-05-16T05:26:41.876Z,933.1
2019-05-16T05:27:43.014Z,933.1
2019-05-16T05:28:44.152Z,933.1
2019-05-16T05:29:45.294Z,933.1
2019-05-16T05:30:46.418Z,933.1
2019-05-16T05:31:46.728Z,933.1
2019-05-16T05:32:50.065Z,930.5
2019-05-16T05:33:50.666Z,933.1
2019-05-16T05:34:50.394Z,933.1
2019-05-16T05:35:51.197Z,933.1
2019-05-16T05:36:51.438Z,933.2
2019-05-16T05:37:52.791Z,933.2
2019-05-16T05:39:16.887Z,933.1
2019-05-16T05:39:55.884Z,933.1
2019-05-16T05:40:56.003Z,933.2
2019-05-16T05:41:56.775Z,933
2019-05-16T05:42:59.855Z,933.1
2019-05-16T05:43:59.979Z,933.1
2019-05-16T05:45:00.461Z,933.2
2019-05-16T05:46:01.556Z,933.1
2019-05-16T05:47:06.168Z,933.1
2019-05-16T05:48:05.564Z,933.2
2019-05-16T05:49:05.266Z,933.2
2019-05-16T05:50:05.412Z,933.1
2019-05-16T05:51:06.819Z,933.2
2019-05-16T05:52:11.637Z,933.2
2019-05-16T05:53:10.169Z,933.1
2019-05-16T05:54:10.822Z,933.2
2019-05-16T05:55:10.729Z,933.1
2019-05-16T05:56:11.557Z,933.1
2019-05-16T05:57:11.964Z,933.1
2019-05-16T05:58:15.421Z,933.1
2019-05-16T05:59:16.836Z,933.1
2019-05-16T06:00:16.242Z,933.2
2019-05-16T06:01:20.242Z,933.2
2019-05-16T06:02:19.996Z,933.1
2019-05-16T06:03:22.117Z,933.1
2019-05-16T06:04:20.726Z,933.2
2019-05-16T06:05:21.888Z,933.1
2019-05-16T06:06:23.014Z,933.1
2019-05-16T06:07:24.149Z,933.1
2019-05-16T06:08:25.270Z,933.1
2019-05-16T06:09:29.911Z,933.2
2019-05-16T06:10:27.166Z,933.2
2019-05-16T06:11:30.574Z,933
2019-05-16T06:12:30.261Z,933.1
2019-05-16T06:13:31.140Z,933.1
2019-05-16T06:14:31.565Z,933.1
2019-05-16T06:15:32.718Z,933.1
2019-05-16T06:16:33.844Z,932.9
2019-05-16T06:17:36.127Z,933.1
2019-05-16T06:18:36.508Z,933.1
2019-05-16T06:19:37.644Z,933
2019-05-16T06:20:40.065Z,933.1
2019-05-16T06:21:44.299Z,933
2019-05-16T06:22:41.077Z,933.1
2019-05-16T06:23:42.209Z,932.8
2019-05-16T06:24:43.333Z,932.9
2019-05-16T06:25:44.495Z,933
2019-05-16T06:26:45.890Z,933.1
2019-05-16T06:27:47.275Z,933.1
2019-05-16T06:28:50.402Z,933
2019-05-16T06:29:49.786Z,933
2019-05-16T06:30:51.964Z,933.1
2019-05-16T06:31:54.845Z,933
2019-05-16T06:32:53.321Z,931.7
2019-05-16T06:33:55.636Z,933.1
2019-05-16T06:34:55.753Z,933.1
2019-05-16T06:35:56.917Z,933.1
2019-05-16T06:37:00.448Z,933.2
2019-05-16T06:38:00.576Z,933.1
2019-05-16T06:39:00.249Z,933.1
2019-05-16T06:40:00.736Z,933.1
2019-05-16T06:41:02.203Z,933
2019-05-16T06:42:03.331Z,933.1
2019-05-16T06:43:05.690Z,933.1
2019-05-16T06:44:05.358Z,932.9
2019-05-16T06:45:06.310Z,933.1
2019-05-16T06:46:06.457Z,933
2019-05-16T06:47:27.457Z,933
2019-05-16T06:48:09.989Z,933.1
2019-05-16T06:49:10.310Z,933.1
2019-05-16T06:50:11.516Z,933
2019-05-16T06:51:11.962Z,933
2019-05-16T06:52:15.763Z,933
2019-05-16T06:53:15.799Z,933
2019-05-16T06:54:15.571Z,932.9
2019-05-16T06:55:15.953Z,933
2019-05-16T06:56:19.787Z,933
2019-05-16T06:57:20.474Z,933
2019-05-16T06:58:21.709Z,933.1
2019-05-16T06:59:20.410Z,933
2019-05-16T07:00:21.508Z,933
2019-05-16T07:01:22.929Z,933
2019-05-16T07:02:29.794Z,933
2019-05-16T07:03:26.133Z,933
2019-05-16T07:04:26.253Z,933
2019-05-16T07:05:29.838Z,933
2019-05-16T07:07:03.807Z,933
2019-05-16T07:07:30.631Z,933
2019-05-16T07:08:30.918Z,932.9
2019-05-16T07:09:31.482Z,932.9
2019-05-16T07:10:32.883Z,932.8
2019-05-16T07:11:36.039Z,932.9
2019-05-16T07:12:41.289Z,932.9
2019-05-16T07:13:36.149Z,932.9
2019-05-16T07:14:37.277Z,932.9
2019-05-16T07:15:40.167Z,932.9
2019-05-16T07:16:40.467Z,932.9
2019-05-16T07:17:40.664Z,932.8
2019-05-16T07:18:42.057Z,932.9
2019-05-16T07:19:46.123Z,932.9
2019-05-16T07:20:45.341Z,932.7
2019-05-16T07:21:45.745Z,932.9
2019-05-16T07:22:47.139Z,932.9
2019-05-16T07:23:47.515Z,932.8
2019-05-16T07:24:50.418Z,932.9
2019-05-16T07:25:50.590Z,932.8
2019-05-16T07:26:50.864Z,933
2019-05-16T07:27:52.256Z,932.6
2019-05-16T07:28:56.679Z,932.9
2019-05-16T07:29:57.607Z,932.9
2019-05-16T07:30:55.784Z,932.8
2019-05-16T07:31:57.821Z,932.9
2019-05-16T07:33:00.200Z,932.8
2019-05-16T07:34:00.596Z,932.9
2019-05-16T07:35:00.279Z,932.8
2019-05-16T07:36:00.312Z,932.9
2019-05-16T07:37:00.603Z,932.9
2019-05-16T07:38:01.699Z,932.9
2019-05-16T07:39:02.836Z,932.9
2019-05-16T07:40:15.913Z,932.8
2019-05-16T07:41:05.218Z,932.9
2019-05-16T07:42:06.360Z,932.9
2019-05-16T07:43:07.492Z,932.8
2019-05-16T07:44:10.748Z,932.8
2019-05-16T07:45:10.502Z,932.8
2019-05-16T07:46:11.196Z,932.9
2019-05-16T07:47:11.652Z,932.8
2019-05-16T07:48:13.037Z,932.8
2019-05-16T07:49:16.895Z,932.8
2019-05-16T07:50:15.901Z,932.8
2019-05-16T07:51:16.289Z,932.8
2019-05-16T07:52:20.612Z,932.7
2019-05-16T07:53:21.080Z,932.6
2019-05-16T07:54:21.303Z,932.7
2019-05-16T07:55:21.169Z,932.6
2019-05-16T07:56:21.557Z,932.7
2019-05-16T07:57:30.444Z,932.7
2019-05-16T07:58:27.655Z,932.7
2019-05-16T07:59:25.807Z,932.7
2019-05-16T08:00:41.862Z,932.8
2019-05-16T08:01:27.183Z,932.5
2019-05-16T08:02:31.048Z,932.6
2019-05-16T08:03:30.326Z,932.6
2019-05-16T08:04:30.484Z,932.6
2019-05-16T08:05:33.394Z,932.6
2019-05-16T08:06:34.007Z,932.7
2019-05-16T08:07:33.455Z,932.7
2019-05-16T08:08:33.795Z,932.6
2019-05-16T08:09:34.913Z,932.5
2019-05-16T08:10:41.453Z,932.5
2019-05-16T08:11:37.407Z,931.6
2019-05-16T08:12:40.632Z,932.6
2019-05-16T08:13:40.096Z,932.7
2019-05-16T08:14:40.998Z,932.6
2019-05-16T08:15:41.421Z,930.8
2019-05-16T08:16:42.555Z,932.7
2019-05-16T08:17:44.560Z,932.6
2019-05-16T08:18:45.322Z,932.6
2019-05-16T08:19:45.758Z,932.7
2019-05-16T08:20:46.883Z,932.6
2019-05-16T08:21:50.349Z,930.9
2019-05-16T08:22:50.707Z,932.6
2019-05-16T08:25:46.656Z,932.1
2019-05-16T08:28:50.215Z,932.6
2019-05-16T08:29:41.623Z,932.6
2019-05-16T08:30:42.420Z,932.5
2019-05-16T08:31:48.546Z,932.5
2019-05-16T08:32:47.732Z,930.8
2019-05-16T08:33:47.114Z,932.5
2019-05-16T08:34:47.506Z,932.6
2019-05-16T08:35:51.453Z,932.5
2019-05-16T08:38:51.456Z,932.5
2019-05-16T08:39:46.752Z,932.6
2019-05-16T08:41:21.886Z,932.5
2019-05-16T08:41:51.591Z,932.4
2019-05-16T08:42:51.547Z,932.5
2019-05-16T08:43:52.897Z,932.5
2019-05-16T08:44:51.583Z,932.5
2019-05-16T08:45:51.840Z,930.8
2019-05-16T08:48:47.872Z,932.5
2019-05-16T08:49:52.089Z,932.5
2019-05-16T08:53:02.539Z,932.4
2019-05-16T08:53:50.424Z,932.5
2019-05-16T08:54:51.022Z,932.4
2019-05-16T08:55:50.496Z,932.4
2019-05-16T08:56:51.252Z,930.9
2019-05-16T08:57:52.795Z,932.4
2019-05-16T08:58:53.713Z,932.2
2019-05-16T08:59:52.298Z,932.4
2019-05-16T09:03:51.639Z,932.3
2019-05-16T09:04:52.956Z,932.4
2019-05-16T09:05:52.972Z,932.4
2019-05-16T09:06:52.535Z,932.3
2019-05-16T09:08:00.349Z,932.4
2019-05-16T09:08:52.955Z,932.4
2019-05-16T09:09:59.764Z,932.4
2019-05-16T09:10:34.044Z,932.3
2019-05-16T09:11:31.072Z,932.4
2019-05-16T09:11:57.466Z,932.3
2019-05-16T09:12:57.636Z,932.4
2019-05-16T09:13:59.033Z,932.4
2019-05-16T09:14:59.836Z,932.4
2019-05-16T09:16:02.496Z,932.3
2019-05-16T09:17:03.498Z,932.3
2019-05-16T09:18:03.578Z,932.3
2019-05-16T09:19:03.963Z,932.3
2019-05-16T09:20:07.366Z,932.3
2019-05-16T09:21:07.244Z,930.4
2019-05-16T09:22:07.740Z,932.3
2019-05-16T09:23:08.874Z,932.3
2019-05-16T09:24:12.236Z,932.1
2019-05-16T09:25:10.722Z,932.2
2019-05-16T09:26:15.798Z,932.3
2019-05-16T09:27:23.343Z,932.2
2019-05-16T09:28:16.790Z,932.3
2019-05-16T09:29:16.745Z,932.2
2019-05-16T09:30:16.988Z,932.3
2019-05-16T09:31:17.940Z,932.1
2019-05-16T09:32:21.574Z,932.2
2019-05-16T09:33:19.220Z,932.2
2019-05-16T09:34:22.996Z,932.2
2019-05-16T09:35:23.123Z,932.2
2019-05-16T09:36:22.962Z,932
2019-05-16T09:37:23.478Z,932.1
2019-05-16T09:38:29.246Z,932.1
2019-05-16T09:39:27.698Z,932.2
2019-05-16T09:40:27.771Z,932.1
2019-05-16T09:41:44.868Z,932.1
2019-05-16T09:42:28.098Z,932.2
2019-05-16T09:43:28.544Z,932.2
2019-05-16T09:44:32.764Z,932.2
2019-05-16T09:45:32.687Z,932.2
2019-05-16T09:46:32.960Z,932
2019-05-16T09:47:33.788Z,932.2
2019-05-16T09:48:34.178Z,932.2
2019-05-16T09:49:37.003Z,932
2019-05-16T09:50:37.873Z,932.1
2019-05-16T09:51:37.695Z,932
2019-05-16T09:52:38.126Z,932
2019-05-16T09:53:41.953Z,932.1
2019-05-16T09:54:42.964Z,932.1
2019-05-16T09:55:42.774Z,932.1
2019-05-16T09:56:42.406Z,932
2019-05-16T09:57:43.265Z,932
2019-05-16T09:58:43.659Z,932
2019-05-16T09:59:46.469Z,932
2019-05-16T10:00:47.243Z,931.9
2019-05-16T10:01:47.691Z,932.1
2019-05-16T10:02:47.576Z,932
2019-05-16T10:03:48.016Z,932
2019-05-16T10:04:49.418Z,932
2019-05-16T10:05:49.933Z,932
2019-05-16T10:06:51.068Z,932.1
2019-05-16T10:07:52.703Z,932
2019-05-16T10:08:52.822Z,932
2019-05-16T10:09:53.957Z,932
2019-05-16T10:10:57.038Z,931.8
2019-05-16T10:12:20.772Z,932
2019-05-16T10:12:56.974Z,932
2019-05-16T10:13:58.100Z,932
2019-05-16T10:14:59.842Z,931.9
2019-05-16T10:16:00.643Z,931.9
2019-05-16T10:17:03.322Z,932
2019-05-16T10:18:03.005Z,931.9
2019-05-16T10:19:03.395Z,931.7
2019-05-16T10:20:07.787Z,932
2019-05-16T10:21:07.697Z,932
2019-05-16T10:22:07.262Z,932
2019-05-16T10:23:14.216Z,932
2019-05-16T10:24:08.801Z,932
2019-05-16T10:25:10.200Z,932
2019-05-16T10:26:10.961Z,932
2019-05-16T10:27:12.359Z,932
2019-05-16T10:28:13.771Z,932
2019-05-16T10:29:17.941Z,932
2019-05-16T10:30:17.528Z,931.9
2019-05-16T10:31:18.089Z,931.9
2019-05-16T10:32:21.917Z,931.9
2019-05-16T10:33:27.230Z,931.8
2019-05-16T10:34:22.757Z,931.8
2019-05-16T10:35:22.139Z,931.9
2019-05-16T10:36:22.635Z,931.8
2019-05-16T10:37:23.767Z,931.8
2019-05-16T10:38:28.076Z,931.8
2019-05-16T10:39:26.920Z,931.8
2019-05-16T10:40:27.474Z,931.8
2019-05-16T10:41:27.865Z,931.8
2019-05-16T10:42:37.646Z,931.8
2019-05-16T10:43:31.967Z,931.8
2019-05-16T10:44:33.921Z,931.8
2019-05-16T10:45:32.022Z,931.7
2019-05-16T10:46:32.830Z,931.8
2019-05-16T10:47:37.148Z,931.8
2019-05-16T10:48:37.540Z,931.8
2019-05-16T10:49:47.636Z,931.8
2019-05-16T10:50:38.102Z,931.8
2019-05-16T10:51:39.518Z,931.8
2019-05-16T10:52:42.174Z,931.8
2019-05-16T10:54:01.956Z,931.7
2019-05-16T10:54:55.066Z,931.8
2019-05-16T10:55:43.226Z,931.8
2019-05-16T10:56:46.471Z,931.7
2019-05-16T10:57:47.069Z,931.8
2019-05-16T10:59:04.726Z,931.8
2019-05-16T11:00:57.484Z,931.8
2019-05-16T11:02:42.803Z,931.6
2019-05-16T11:03:43.107Z,931.7
2019-05-16T11:04:57.090Z,931.7
2019-05-16T11:06:01.000Z,931.7
2019-05-16T11:06:46.565Z,931.7
2019-05-16T11:07:48.127Z,931.7
2019-05-16T11:08:47.444Z,931.7
2019-05-16T11:09:57.835Z,931.6
2019-05-16T11:10:49.691Z,931.7
2019-05-16T11:11:53.059Z,931.7
2019-05-16T11:13:04.209Z,931.7
2019-05-16T11:13:56.579Z,931.5
2019-05-16T11:14:53.955Z,931.6
2019-05-16T11:15:55.079Z,931.6
2019-05-16T11:16:58.057Z,931.7
2019-05-16T11:17:59.968Z,931.6
2019-05-16T11:19:13.648Z,931.6
2019-05-16T11:19:59.456Z,931.5
2019-05-16T11:21:03.643Z,931.6
2019-05-16T11:22:02.743Z,931.6
2019-05-16T11:23:03.149Z,931.6
2019-05-16T11:24:03.566Z,931.5
2019-05-16T11:25:18.174Z,931.5
2019-05-16T11:26:06.037Z,931.6
2019-05-16T11:27:07.661Z,931.5
2019-05-16T11:28:08.047Z,931.5
2019-05-16T11:29:09.445Z,931.5
2019-05-16T11:30:13.085Z,931.4
2019-05-16T11:31:13.169Z,930
2019-05-16T11:32:12.553Z,931.3
2019-05-16T11:33:16.752Z,931.4
2019-05-16T11:34:17.162Z,931.4
2019-05-16T11:35:17.108Z,931.4
2019-05-16T11:36:18.422Z,931.2
2019-05-16T11:37:17.894Z,931.4
2019-05-16T11:38:19.003Z,931.3
2019-05-16T11:39:20.137Z,931.3
2019-05-16T11:40:21.284Z,931.3
2019-05-16T11:41:22.680Z,931.3
2019-05-16T11:42:24.094Z,931.2
2019-05-16T11:43:27.814Z,931.3
2019-05-16T11:44:28.488Z,931.3
2019-05-16T11:45:27.331Z,931.1
2019-05-16T11:46:28.698Z,931.3
2019-05-16T11:47:29.815Z,931.3
2019-05-16T11:48:37.616Z,931.3
2019-05-16T11:49:32.969Z,931.3
2019-05-16T11:50:33.518Z,931.3
2019-05-16T11:51:33.940Z,931.3
2019-05-16T11:52:35.325Z,931.3
2019-05-16T11:53:37.793Z,931.3
2019-05-16T11:54:37.766Z,931.2
2019-05-16T11:56:01.446Z,930.4
2019-05-16T11:56:42.312Z,931.1
2019-05-16T11:57:43.335Z,931.2
2019-05-16T11:58:42.433Z,931.2
2019-05-16T11:59:42.939Z,931.3
2019-05-16T12:00:44.365Z,931.2
2019-05-16T12:01:47.402Z,931.2
2019-05-16T12:02:48.343Z,931.3
2019-05-16T12:03:47.456Z,931.2
2019-05-16T12:04:48.231Z,931.2
2019-05-16T12:05:53.882Z,931.2
2019-05-16T12:06:52.223Z,931.2
2019-05-16T12:07:57.040Z,931.2
2019-05-16T12:08:52.553Z,931.2
2019-05-16T12:10:01.114Z,931.1
2019-05-16T12:10:54.195Z,931.1
2019-05-16T12:12:09.740Z,931.1
2019-05-16T12:12:56.930Z,931.2
2019-05-16T12:13:58.315Z,930.2
2019-05-16T12:14:58.813Z,931
2019-05-16T12:15:59.964Z,931.2
2019-05-16T12:17:02.394Z,931
2019-05-16T12:18:12.891Z,931.2
2019-05-16T12:19:06.680Z,931.2
2019-05-16T12:20:07.646Z,931.1
2019-05-16T12:21:07.521Z,931.1
2019-05-16T12:22:07.220Z,931.1
2019-05-16T12:23:08.580Z,931.1
2019-05-16T12:24:26.862Z,931.1
2019-05-16T12:27:08.178Z,931.2
2019-05-16T12:28:08.055Z,931.1
2019-05-16T12:29:07.646Z,931
2019-05-16T12:30:13.463Z,931.1
2019-05-16T12:31:12.683Z,931
2019-05-16T12:32:13.754Z,931.1
2019-05-16T12:33:11.858Z,931
2019-05-16T12:34:12.984Z,931
2019-05-16T12:35:14.114Z,931.1
2019-05-16T12:36:18.225Z,931.1
2019-05-16T12:37:16.304Z,931
2019-05-16T12:38:17.420Z,931
2019-05-16T12:39:17.807Z,931
2019-05-16T12:40:19.216Z,931
2019-05-16T12:41:20.623Z,930.9
2019-05-16T12:42:21.758Z,931
2019-05-16T12:43:22.879Z,931
2019-05-16T12:44:24.020Z,931
2019-05-16T12:45:27.441Z,931
2019-05-16T12:46:27.283Z,931
2019-05-16T12:47:27.475Z,931
2019-05-16T12:48:28.255Z,931
2019-05-16T12:49:29.657Z,931.1
2019-05-16T12:50:34.464Z,931.1
2019-05-16T12:51:31.940Z,930.9
2019-05-16T12:52:33.362Z,931
2019-05-16T12:53:37.758Z,931.1
2019-05-16T12:54:36.918Z,930.9
2019-05-16T12:55:37.448Z,931
2019-05-16T12:56:38.853Z,930.8
2019-05-16T12:57:40.048Z,930.8
2019-05-16T12:58:50.684Z,930.8
2019-05-16T12:59:49.894Z,930.8
2019-05-16T13:00:43.956Z,930.9
2019-05-16T13:01:44.626Z,931
2019-05-16T13:02:47.272Z,930.9
2019-05-16T13:03:48.003Z,930.9
2019-05-16T13:04:47.484Z,930.9
2019-05-16T13:05:48.876Z,930.8
2019-05-16T13:06:52.382Z,930.9
2019-05-16T13:07:53.119Z,930.8
2019-05-16T13:08:53.628Z,930.9
2019-05-16T13:09:53.800Z,930.8
2019-05-16T13:10:57.528Z,930.8
2019-05-16T13:11:57.706Z,930.7
2019-05-16T13:12:58.055Z,930.9
2019-05-16T13:14:16.879Z,930.9
2019-05-16T13:14:59.185Z,930.9
2019-05-16T13:16:00.585Z,930.7
2019-05-16T13:17:01.985Z,930.8
2019-05-16T13:18:03.408Z,930.8
2019-05-16T13:19:04.042Z,930.8
2019-05-16T13:20:07.675Z,930.8
2019-05-16T13:21:06.788Z,930.8
2019-05-16T13:22:07.420Z,930.7
2019-05-16T13:23:14.284Z,930.8
2019-05-16T13:24:09.073Z,930.7
2019-05-16T13:25:10.205Z,930.7
2019-05-16T13:26:11.330Z,930.7
2019-05-16T13:27:12.469Z,930.8
2019-05-16T13:28:13.619Z,930.7
2019-05-16T13:29:14.401Z,930.7
2019-05-16T13:30:17.453Z,930.7
2019-05-16T13:31:17.164Z,930.7
2019-05-16T13:32:17.446Z,930.7